sensor_id;sensor_type;location;lat;lon;timestamp;temperature;humidity
41080;DHT22;26826;50.718;7.114;2023-11-21T00:05:19;8.60;99.90
41080;DHT22;26826;50.718;7.114;2023-11-21T00:15:20;8.70;99.90
41080;DHT22;26826;50.718;7.114;2023-11-21T00:46:22;8.60;99.90
41080;DHT22;26826;50.718;7.114;2023-11-21T00:56:24;8.70;99.90
41080;DHT22;26826;50.718;7.114;2023-11-21T01:06:24;8.70;99.90
41080;DHT22;26826;50.718;7.114;2023-11-21T01:16:25;8.70;99.90
41080;DHT22;26826;50.718;7.114;2023-11-21T01:26:25;8.80;99.90
41080;DHT22;26826;50.718;7.114;2023-11-21T01:36:32;8.80;99.90
41080;DHT22;26826;50.718;7.114;2023-11-21T01:46:33;8.70;99.90
41080;DHT22;26826;50.718;7.114;2023-11-21T01:56:33;8.80;99.90
41080;DHT22;26826;50.718;7.114;2023-11-21T02:06:34;8.70;99.90
41080;DHT22;26826;50.718;7.114;2023-11-21T02:16:35;8.60;99.90
41080;DHT22;26826;50.718;7.114;2023-11-21T02:26:35;8.70;99.90
41080;DHT22;26826;50.718;7.114;2023-11-21T02:36:36;8.60;99.90
41080;DHT22;26826;50.718;7.114;2023-11-21T02:46:37;8.60;99.90
41080;DHT22;26826;50.718;7.114;2023-11-21T02:56:37;8.60;99.90
41080;DHT22;26826;50.718;7.114;2023-11-21T03:06:40;8.60;99.90
41080;DHT22;26826;50.718;7.114;2023-11-21T03:16:40;8.60;99.90
41080;DHT22;26826;50.718;7.114;2023-11-21T03:26:41;8.60;99.90
41080;DHT22;26826;50.718;7.114;2023-11-21T03:36:41;8.50;99.90
41080;DHT22;26826;50.718;7.114;2023-11-21T03:46:42;8.40;99.90
41080;DHT22;26826;50.718;7.114;2023-11-21T03:56:42;8.50;99.90
41080;DHT22;26826;50.718;7.114;2023-11-21T04:06:43;8.50;99.90
41080;DHT22;26826;50.718;7.114;2023-11-21T04:16:43;8.50;99.90
41080;DHT22;26826;50.718;7.114;2023-11-21T04:26:44;8.50;99.90
41080;DHT22;26826;50.718;7.114;2023-11-21T04:36:44;8.40;99.90
41080;DHT22;26826;50.718;7.114;2023-11-21T04:46:45;8.40;99.90
41080;DHT22;26826;50.718;7.114;2023-11-21T04:56:45;8.40;99.90
41080;DHT22;26826;50.718;7.114;2023-11-21T05:06:46;8.30;99.90
41080;DHT22;26826;50.718;7.114;2023-11-21T05:16:46;8.40;99.90
41080;DHT22;26826;50.718;7.114;2023-11-21T05:26:47;8.40;99.90
41080;DHT22;26826;50.718;7.114;2023-11-21T05:36:48;8.40;99.90
41080;DHT22;26826;50.718;7.114;2023-11-21T05:46:48;8.30;99.90
41080;DHT22;26826;50.718;7.114;2023-11-21T05:56:48;8.20;99.90
41080;DHT22;26826;50.718;7.114;2023-11-21T06:06:50;8.30;99.90
41080;DHT22;26826;50.718;7.114;2023-11-21T06:16:51;8.30;99.90
41080;DHT22;26826;50.718;7.114;2023-11-21T06:37:34;8.30;99.90
41080;DHT22;26826;50.718;7.114;2023-11-21T06:47:34;8.30;99.90
41080;DHT22;26826;50.718;7.114;2023-11-21T06:57:35;8.20;99.90
41080;DHT22;26826;50.718;7.114;2023-11-21T07:07:35;8.30;99.90
41080;DHT22;26826;50.718;7.114;2023-11-21T07:17:37;8.30;99.90
41080;DHT22;26826;50.718;7.114;2023-11-21T07:27:37;8.40;99.90
41080;DHT22;26826;50.718;7.114;2023-11-21T07:37:38;8.30;99.90
41080;DHT22;26826;50.718;7.114;2023-11-21T07:47:38;8.40;99.90
41080;DHT22;26826;50.718;7.114;2023-11-21T07:57:39;8.40;99.90
41080;DHT22;26826;50.718;7.114;2023-11-21T08:07:39;8.40;99.90
41080;DHT22;26826;50.718;7.114;2023-11-21T08:17:40;8.50;99.90
41080;DHT22;26826;50.718;7.114;2023-11-21T08:27:41;8.60;99.90
41080;DHT22;26826;50.718;7.114;2023-11-21T08:37:41;8.80;99.90
41080;DHT22;26826;50.718;7.114;2023-11-21T08:47:42;8.90;99.90
41080;DHT22;26826;50.718;7.114;2023-11-21T08:57:44;9.10;99.90
41080;DHT22;26826;50.718;7.114;2023-11-21T09:07:45;9.20;99.90
41080;DHT22;26826;50.718;7.114;2023-11-21T09:17:47;9.30;99.90
41080;DHT22;26826;50.718;7.114;2023-11-21T09:27:47;9.30;99.90
41080;DHT22;26826;50.718;7.114;2023-11-21T09:37:48;9.20;99.90
41080;DHT22;26826;50.718;7.114;2023-11-21T09:47:48;9.20;99.90
41080;DHT22;26826;50.718;7.114;2023-11-21T09:57:49;9.20;99.90
41080;DHT22;26826;50.718;7.114;2023-11-21T10:07:50;9.40;99.90
41080;DHT22;26826;50.718;7.114;2023-11-21T10:17:51;9.60;99.90
41080;DHT22;26826;50.718;7.114;2023-11-21T10:28:01;9.70;99.90
41080;DHT22;26826;50.718;7.114;2023-11-21T10:38:02;9.80;99.90
41080;DHT22;26826;50.718;7.114;2023-11-21T10:48:07;9.80;99.90
41080;DHT22;26826;50.718;7.114;2023-11-21T10:58:08;9.90;99.90
41080;DHT22;26826;50.718;7.114;2023-11-21T11:08:12;10.00;99.90
41080;DHT22;26826;50.718;7.114;2023-11-21T11:18:12;10.10;99.90
41080;DHT22;26826;50.718;7.114;2023-11-21T11:28:21;10.10;99.90
41080;DHT22;26826;50.718;7.114;2023-11-21T11:38:22;10.10;99.90
41080;DHT22;26826;50.718;7.114;2023-11-21T11:48:23;10.10;99.90
41080;DHT22;26826;50.718;7.114;2023-11-21T11:58:24;10.30;99.90
41080;DHT22;26826;50.718;7.114;2023-11-21T12:08:37;10.20;99.90
41080;DHT22;26826;50.718;7.114;2023-11-21T12:18:38;10.20;99.90
41080;DHT22;26826;50.718;7.114;2023-11-21T12:49:41;10.40;99.90
41080;DHT22;26826;50.718;7.114;2023-11-21T12:59:45;10.60;99.90
41080;DHT22;26826;50.718;7.114;2023-11-21T13:09:45;10.40;99.90
41080;DHT22;26826;50.718;7.114;2023-11-21T13:19:46;10.60;99.90
41080;DHT22;26826;50.718;7.114;2023-11-21T13:29:47;10.50;99.90
41080;DHT22;26826;50.718;7.114;2023-11-21T13:39:47;10.70;99.90
41080;DHT22;26826;50.718;7.114;2023-11-21T13:49:50;10.70;99.90
41080;DHT22;26826;50.718;7.114;2023-11-21T13:59:50;10.50;99.90
41080;DHT22;26826;50.718;7.114;2023-11-21T14:09:51;10.40;99.90
41080;DHT22;26826;50.718;7.114;2023-11-21T14:19:53;10.40;99.90
41080;DHT22;26826;50.718;7.114;2023-11-21T14:29:56;10.30;99.90
41080;DHT22;26826;50.718;7.114;2023-11-21T14:39:57;10.30;99.90
41080;DHT22;26826;50.718;7.114;2023-11-21T14:49:58;10.20;99.90
41080;DHT22;26826;50.718;7.114;2023-11-21T15:00:00;10.20;99.90
41080;DHT22;26826;50.718;7.114;2023-11-21T15:10:01;10.10;99.90
41080;DHT22;26826;50.718;7.114;2023-11-21T15:20:01;10.10;99.90
41080;DHT22;26826;50.718;7.114;2023-11-21T15:30:03;10.10;99.90
41080;DHT22;26826;50.718;7.114;2023-11-21T15:40:04;10.00;99.90
41080;DHT22;26826;50.718;7.114;2023-11-21T15:50:06;10.10;99.90
41080;DHT22;26826;50.718;7.114;2023-11-21T16:00:09;10.00;99.90
41080;DHT22;26826;50.718;7.114;2023-11-21T16:10:19;9.70;99.90
41080;DHT22;26826;50.718;7.114;2023-11-21T16:20:20;9.60;99.90
41080;DHT22;26826;50.718;7.114;2023-11-21T16:30:21;9.60;99.90
41080;DHT22;26826;50.718;7.114;2023-11-21T16:40:23;9.60;99.90
41080;DHT22;26826;50.718;7.114;2023-11-21T16:50:24;9.70;99.90
41080;DHT22;26826;50.718;7.114;2023-11-21T17:00:25;9.70;99.90
41080;DHT22;26826;50.718;7.114;2023-11-21T17:10:26;9.70;99.90
41080;DHT22;26826;50.718;7.114;2023-11-21T17:20:27;9.60;99.90
41080;DHT22;26826;50.718;7.114;2023-11-21T17:30:27;9.50;99.90
41080;DHT22;26826;50.718;7.114;2023-11-21T17:40:28;9.50;99.90
41080;DHT22;26826;50.718;7.114;2023-11-21T17:50:28;9.50;99.90
41080;DHT22;26826;50.718;7.114;2023-11-21T18:00:29;9.50;99.90
41080;DHT22;26826;50.718;7.114;2023-11-21T18:10:29;9.50;99.90
41080;DHT22;26826;50.718;7.114;2023-11-21T18:20:30;9.50;99.90
41080;DHT22;26826;50.718;7.114;2023-11-21T18:30:30;9.40;99.90
41080;DHT22;26826;50.718;7.114;2023-11-21T18:40:31;9.10;99.90
41080;DHT22;26826;50.718;7.114;2023-11-21T18:50:31;8.80;99.90
41080;DHT22;26826;50.718;7.114;2023-11-21T19:00:32;8.60;99.90
41080;DHT22;26826;50.718;7.114;2023-11-21T19:10:32;8.60;99.90
41080;DHT22;26826;50.718;7.114;2023-11-21T19:20:33;8.50;99.90
41080;DHT22;26826;50.718;7.114;2023-11-21T19:30:34;8.50;99.90
41080;DHT22;26826;50.718;7.114;2023-11-21T19:40:37;8.30;99.90
41080;DHT22;26826;50.718;7.114;2023-11-21T19:50:37;8.20;99.90
41080;DHT22;26826;50.718;7.114;2023-11-21T20:00:38;8.00;99.90
41080;DHT22;26826;50.718;7.114;2023-11-21T20:10:41;7.90;99.90
41080;DHT22;26826;50.718;7.114;2023-11-21T20:20:42;7.70;99.90
41080;DHT22;26826;50.718;7.114;2023-11-21T20:30:42;7.60;99.90
41080;DHT22;26826;50.718;7.114;2023-11-21T20:40:43;7.50;99.90
41080;DHT22;26826;50.718;7.114;2023-11-21T20:50:43;7.40;99.90
41080;DHT22;26826;50.718;7.114;2023-11-21T21:00:44;7.20;99.90
41080;DHT22;26826;50.718;7.114;2023-11-21T21:10:44;7.30;99.90
41080;DHT22;26826;50.718;7.114;2023-11-21T21:20:45;7.20;99.90
41080;DHT22;26826;50.718;7.114;2023-11-21T21:30:45;7.10;99.90
41080;DHT22;26826;50.718;7.114;2023-11-21T21:40:47;7.10;99.90
41080;DHT22;26826;50.718;7.114;2023-11-21T21:50:47;7.10;99.90
41080;DHT22;26826;50.718;7.114;2023-11-21T22:00:48;7.00;99.90
41080;DHT22;26826;50.718;7.114;2023-11-21T22:10:48;7.00;99.90
41080;DHT22;26826;50.718;7.114;2023-11-21T22:20:49;7.10;99.90
41080;DHT22;26826;50.718;7.114;2023-11-21T22:30:49;7.00;99.90
41080;DHT22;26826;50.718;7.114;2023-11-21T22:40:50;7.00;99.90
41080;DHT22;26826;50.718;7.114;2023-11-21T22:50:50;7.00;99.90
41080;DHT22;26826;50.718;7.114;2023-11-21T23:00:51;6.90;99.90
41080;DHT22;26826;50.718;7.114;2023-11-21T23:10:56;6.60;99.90
41080;DHT22;26826;50.718;7.114;2023-11-21T23:20:57;6.50;99.90
41080;DHT22;26826;50.718;7.114;2023-11-21T23:30:57;6.30;99.90
41080;DHT22;26826;50.718;7.114;2023-11-21T23:40:58;6.10;99.90
41080;DHT22;26826;50.718;7.114;2023-11-21T23:50:58;5.80;99.90
